sensor_id;sensor_type;location;lat;lon;timestamp;P1;durP1;ratioP1;P2;durP2;ratioP2
45328;SDS011;72636;48.160;11.428;2024-03-06T00:02:08;28.60;;;22.45;;
45328;SDS011;72636;48.160;11.428;2024-03-06T00:04:33;26.65;;;21.67;;
45328;SDS011;72636;48.160;11.428;2024-03-06T00:07:00;26.48;;;21.98;;
45328;SDS011;72636;48.160;11.428;2024-03-06T00:09:26;27.73;;;22.10;;
45328;SDS011;72636;48.160;11.428;2024-03-06T00:11:54;27.88;;;22.17;;
45328;SDS011;72636;48.160;11.428;2024-03-06T00:14:21;27.27;;;20.88;;
45328;SDS011;72636;48.160;11.428;2024-03-06T00:16:48;27.15;;;21.52;;
45328;SDS011;72636;48.160;11.428;2024-03-06T00:19:17;26.23;;;20.85;;
45328;SDS011;72636;48.160;11.428;2024-03-06T00:24:11;27.02;;;20.60;;
45328;SDS011;72636;48.160;11.428;2024-03-06T00:26:39;28.88;;;22.23;;
45328;SDS011;72636;48.160;11.428;2024-03-06T00:29:06;28.55;;;22.25;;
45328;SDS011;72636;48.160;11.428;2024-03-06T00:31:31;26.83;;;21.05;;
45328;SDS011;72636;48.160;11.428;2024-03-06T00:33:57;25.93;;;20.70;;
45328;SDS011;72636;48.160;11.428;2024-03-06T00:36:23;24.63;;;20.60;;
45328;SDS011;72636;48.160;11.428;2024-03-06T00:38:48;26.13;;;20.23;;
45328;SDS011;72636;48.160;11.428;2024-03-06T00:41:14;26.90;;;22.33;;
45328;SDS011;72636;48.160;11.428;2024-03-06T00:43:40;30.17;;;22.67;;
45328;SDS011;72636;48.160;11.428;2024-03-06T00:46:05;29.53;;;23.03;;
45328;SDS011;72636;48.160;11.428;2024-03-06T00:48:31;32.42;;;22.90;;
45328;SDS011;72636;48.160;11.428;2024-03-06T00:50:57;30.23;;;23.57;;
45328;SDS011;72636;48.160;11.428;2024-03-06T00:53:22;27.23;;;21.73;;
45328;SDS011;72636;48.160;11.428;2024-03-06T00:55:49;28.60;;;23.08;;
45328;SDS011;72636;48.160;11.428;2024-03-06T00:58:15;27.23;;;22.10;;
45328;SDS011;72636;48.160;11.428;2024-03-06T01:00:40;28.83;;;23.20;;
45328;SDS011;72636;48.160;11.428;2024-03-06T01:03:06;27.63;;;21.87;;
45328;SDS011;72636;48.160;11.428;2024-03-06T01:05:32;27.70;;;21.90;;
45328;SDS011;72636;48.160;11.428;2024-03-06T01:07:57;28.30;;;22.35;;
45328;SDS011;72636;48.160;11.428;2024-03-06T01:10:24;25.58;;;21.40;;
45328;SDS011;72636;48.160;11.428;2024-03-06T01:12:50;26.25;;;21.63;;
45328;SDS011;72636;48.160;11.428;2024-03-06T01:15:15;27.20;;;22.43;;
45328;SDS011;72636;48.160;11.428;2024-03-06T01:17:41;27.00;;;22.17;;
45328;SDS011;72636;48.160;11.428;2024-03-06T01:20:07;30.30;;;23.30;;
45328;SDS011;72636;48.160;11.428;2024-03-06T01:22:33;30.38;;;23.75;;
45328;SDS011;72636;48.160;11.428;2024-03-06T01:24:59;27.38;;;22.38;;
45328;SDS011;72636;48.160;11.428;2024-03-06T01:27:25;29.23;;;23.38;;
45328;SDS011;72636;48.160;11.428;2024-03-06T01:29:51;28.70;;;23.35;;
45328;SDS011;72636;48.160;11.428;2024-03-06T01:32:17;29.97;;;22.97;;
45328;SDS011;72636;48.160;11.428;2024-03-06T01:34:43;29.90;;;24.27;;
45328;SDS011;72636;48.160;11.428;2024-03-06T01:37:08;31.83;;;24.43;;
45328;SDS011;72636;48.160;11.428;2024-03-06T01:39:34;28.60;;;22.17;;
45328;SDS011;72636;48.160;11.428;2024-03-06T01:42:01;29.73;;;23.17;;
45328;SDS011;72636;48.160;11.428;2024-03-06T01:44:28;28.88;;;22.92;;
45328;SDS011;72636;48.160;11.428;2024-03-06T01:46:54;31.60;;;24.30;;
45328;SDS011;72636;48.160;11.428;2024-03-06T01:49:20;31.35;;;24.08;;
45328;SDS011;72636;48.160;11.428;2024-03-06T01:51:54;32.58;;;25.30;;
45328;SDS011;72636;48.160;11.428;2024-03-06T01:54:22;30.10;;;23.80;;
45328;SDS011;72636;48.160;11.428;2024-03-06T01:59:18;28.77;;;23.70;;
45328;SDS011;72636;48.160;11.428;2024-03-06T02:01:46;30.27;;;23.70;;
45328;SDS011;72636;48.160;11.428;2024-03-06T02:04:12;28.90;;;23.02;;
45328;SDS011;72636;48.160;11.428;2024-03-06T02:06:38;29.83;;;23.95;;
45328;SDS011;72636;48.160;11.428;2024-03-06T02:09:04;32.00;;;24.08;;
45328;SDS011;72636;48.160;11.428;2024-03-06T02:11:31;33.15;;;24.88;;
45328;SDS011;72636;48.160;11.428;2024-03-06T02:13:57;33.45;;;24.50;;
45328;SDS011;72636;48.160;11.428;2024-03-06T02:16:23;32.80;;;24.48;;
45328;SDS011;72636;48.160;11.428;2024-03-06T02:18:53;35.58;;;26.42;;
45328;SDS011;72636;48.160;11.428;2024-03-06T02:21:22;33.33;;;24.58;;
45328;SDS011;72636;48.160;11.428;2024-03-06T02:23:49;32.67;;;24.08;;
45328;SDS011;72636;48.160;11.428;2024-03-06T02:26:19;34.30;;;25.13;;
45328;SDS011;72636;48.160;11.428;2024-03-06T02:28:48;33.72;;;24.40;;
45328;SDS011;72636;48.160;11.428;2024-03-06T02:31:15;33.00;;;24.40;;
45328;SDS011;72636;48.160;11.428;2024-03-06T02:33:42;35.47;;;25.45;;
45328;SDS011;72636;48.160;11.428;2024-03-06T02:36:09;33.90;;;25.60;;
45328;SDS011;72636;48.160;11.428;2024-03-06T02:38:39;34.95;;;25.77;;
45328;SDS011;72636;48.160;11.428;2024-03-06T02:41:05;33.88;;;25.35;;
45328;SDS011;72636;48.160;11.428;2024-03-06T02:43:32;33.17;;;25.20;;
45328;SDS011;72636;48.160;11.428;2024-03-06T02:45:58;37.83;;;26.25;;
45328;SDS011;72636;48.160;11.428;2024-03-06T02:48:24;35.20;;;24.55;;
45328;SDS011;72636;48.160;11.428;2024-03-06T02:50:49;37.23;;;26.57;;
45328;SDS011;72636;48.160;11.428;2024-03-06T02:53:15;36.90;;;26.30;;
45328;SDS011;72636;48.160;11.428;2024-03-06T02:55:41;35.23;;;25.17;;
45328;SDS011;72636;48.160;11.428;2024-03-06T02:58:06;36.67;;;26.33;;
45328;SDS011;72636;48.160;11.428;2024-03-06T03:00:32;34.63;;;24.80;;
45328;SDS011;72636;48.160;11.428;2024-03-06T03:02:58;36.27;;;25.53;;
45328;SDS011;72636;48.160;11.428;2024-03-06T03:05:24;39.85;;;26.25;;
45328;SDS011;72636;48.160;11.428;2024-03-06T03:07:50;36.30;;;24.90;;
45328;SDS011;72636;48.160;11.428;2024-03-06T03:10:16;36.55;;;24.92;;
45328;SDS011;72636;48.160;11.428;2024-03-06T03:12:41;38.70;;;26.63;;
45328;SDS011;72636;48.160;11.428;2024-03-06T03:15:07;41.17;;;27.57;;
45328;SDS011;72636;48.160;11.428;2024-03-06T03:19:59;43.88;;;26.80;;
45328;SDS011;72636;48.160;11.428;2024-03-06T03:22:34;37.13;;;25.65;;
45328;SDS011;72636;48.160;11.428;2024-03-06T03:25:07;36.22;;;25.17;;
45328;SDS011;72636;48.160;11.428;2024-03-06T03:27:34;41.22;;;26.40;;
45328;SDS011;72636;48.160;11.428;2024-03-06T03:30:02;37.63;;;25.52;;
45328;SDS011;72636;48.160;11.428;2024-03-06T03:32:28;40.88;;;27.50;;
45328;SDS011;72636;48.160;11.428;2024-03-06T03:34:54;43.92;;;28.25;;
45328;SDS011;72636;48.160;11.428;2024-03-06T03:37:19;39.27;;;26.60;;
45328;SDS011;72636;48.160;11.428;2024-03-06T03:39:45;41.50;;;28.30;;
45328;SDS011;72636;48.160;11.428;2024-03-06T03:42:11;39.40;;;26.45;;
45328;SDS011;72636;48.160;11.428;2024-03-06T03:44:36;40.13;;;27.63;;
45328;SDS011;72636;48.160;11.428;2024-03-06T03:47:02;45.30;;;28.55;;
45328;SDS011;72636;48.160;11.428;2024-03-06T03:49:28;36.87;;;26.20;;
45328;SDS011;72636;48.160;11.428;2024-03-06T03:51:53;44.83;;;28.30;;
45328;SDS011;72636;48.160;11.428;2024-03-06T03:54:19;43.17;;;28.47;;
45328;SDS011;72636;48.160;11.428;2024-03-06T03:56:45;42.03;;;27.50;;
45328;SDS011;72636;48.160;11.428;2024-03-06T03:59:10;40.30;;;26.97;;
45328;SDS011;72636;48.160;11.428;2024-03-06T04:01:36;44.67;;;27.03;;
45328;SDS011;72636;48.160;11.428;2024-03-06T04:04:02;42.47;;;27.17;;
45328;SDS011;72636;48.160;11.428;2024-03-06T04:06:27;44.83;;;27.20;;
45328;SDS011;72636;48.160;11.428;2024-03-06T04:08:53;38.00;;;24.50;;
45328;SDS011;72636;48.160;11.428;2024-03-06T04:11:19;38.33;;;25.17;;
45328;SDS011;72636;48.160;11.428;2024-03-06T04:13:44;31.47;;;20.83;;
45328;SDS011;72636;48.160;11.428;2024-03-06T04:16:15;28.25;;;19.73;;
45328;SDS011;72636;48.160;11.428;2024-03-06T04:18:42;32.08;;;21.25;;
45328;SDS011;72636;48.160;11.428;2024-03-06T04:21:07;30.30;;;20.57;;
45328;SDS011;72636;48.160;11.428;2024-03-06T04:23:35;27.65;;;18.92;;
45328;SDS011;72636;48.160;11.428;2024-03-06T04:26:01;29.27;;;19.95;;
45328;SDS011;72636;48.160;11.428;2024-03-06T04:28:28;29.17;;;20.65;;
45328;SDS011;72636;48.160;11.428;2024-03-06T04:30:54;31.63;;;21.15;;
45328;SDS011;72636;48.160;11.428;2024-03-06T04:33:20;31.13;;;21.35;;
45328;SDS011;72636;48.160;11.428;2024-03-06T04:35:46;33.13;;;22.42;;
45328;SDS011;72636;48.160;11.428;2024-03-06T04:38:12;33.53;;;21.97;;
45328;SDS011;72636;48.160;11.428;2024-03-06T04:40:37;33.90;;;21.60;;
45328;SDS011;72636;48.160;11.428;2024-03-06T04:45:29;35.47;;;21.67;;
45328;SDS011;72636;48.160;11.428;2024-03-06T04:47:55;34.57;;;22.90;;
45328;SDS011;72636;48.160;11.428;2024-03-06T04:50:21;33.67;;;23.13;;
45328;SDS011;72636;48.160;11.428;2024-03-06T04:52:46;36.00;;;23.20;;
45328;SDS011;72636;48.160;11.428;2024-03-06T04:55:12;36.03;;;22.97;;
45328;SDS011;72636;48.160;11.428;2024-03-06T04:57:41;35.72;;;23.90;;
45328;SDS011;72636;48.160;11.428;2024-03-06T05:00:08;39.22;;;24.33;;
45328;SDS011;72636;48.160;11.428;2024-03-06T05:02:35;40.28;;;26.45;;
45328;SDS011;72636;48.160;11.428;2024-03-06T05:05:02;39.05;;;25.75;;
45328;SDS011;72636;48.160;11.428;2024-03-06T05:07:28;35.53;;;23.85;;
45328;SDS011;72636;48.160;11.428;2024-03-06T05:09:55;40.50;;;25.38;;
45328;SDS011;72636;48.160;11.428;2024-03-06T05:12:22;36.95;;;24.73;;
45328;SDS011;72636;48.160;11.428;2024-03-06T05:14:48;38.28;;;25.23;;
45328;SDS011;72636;48.160;11.428;2024-03-06T05:17:14;40.83;;;25.25;;
45328;SDS011;72636;48.160;11.428;2024-03-06T05:19:39;44.97;;;25.83;;
45328;SDS011;72636;48.160;11.428;2024-03-06T05:22:05;42.93;;;26.03;;
45328;SDS011;72636;48.160;11.428;2024-03-06T05:24:31;35.27;;;24.73;;
45328;SDS011;72636;48.160;11.428;2024-03-06T05:26:56;39.07;;;25.93;;
45328;SDS011;72636;48.160;11.428;2024-03-06T05:29:22;39.37;;;25.20;;
45328;SDS011;72636;48.160;11.428;2024-03-06T05:31:47;41.90;;;26.87;;
45328;SDS011;72636;48.160;11.428;2024-03-06T05:34:13;43.60;;;26.17;;
45328;SDS011;72636;48.160;11.428;2024-03-06T05:36:39;40.80;;;25.23;;
45328;SDS011;72636;48.160;11.428;2024-03-06T05:39:05;43.23;;;27.13;;
45328;SDS011;72636;48.160;11.428;2024-03-06T05:41:32;41.00;;;25.75;;
45328;SDS011;72636;48.160;11.428;2024-03-06T05:43:58;42.65;;;26.40;;
45328;SDS011;72636;48.160;11.428;2024-03-06T05:46:24;41.92;;;25.38;;
45328;SDS011;72636;48.160;11.428;2024-03-06T05:51:16;45.42;;;25.88;;
45328;SDS011;72636;48.160;11.428;2024-03-06T05:53:42;42.92;;;26.65;;
45328;SDS011;72636;48.160;11.428;2024-03-06T05:56:09;43.55;;;26.17;;
45328;SDS011;72636;48.160;11.428;2024-03-06T05:58:35;39.28;;;25.23;;
45328;SDS011;72636;48.160;11.428;2024-03-06T06:01:01;30.10;;;19.23;;
45328;SDS011;72636;48.160;11.428;2024-03-06T06:03:28;27.33;;;18.30;;
45328;SDS011;72636;48.160;11.428;2024-03-06T06:05:55;27.25;;;16.90;;
45328;SDS011;72636;48.160;11.428;2024-03-06T06:08:20;23.95;;;15.77;;
45328;SDS011;72636;48.160;11.428;2024-03-06T06:10:46;21.87;;;15.43;;
45328;SDS011;72636;48.160;11.428;2024-03-06T06:13:12;19.17;;;12.80;;
45328;SDS011;72636;48.160;11.428;2024-03-06T06:15:38;14.13;;;11.65;;
45328;SDS011;72636;48.160;11.428;2024-03-06T06:18:03;13.63;;;9.73;;
45328;SDS011;72636;48.160;11.428;2024-03-06T06:20:29;9.85;;;8.50;;
45328;SDS011;72636;48.160;11.428;2024-03-06T06:22:55;13.97;;;9.03;;
45328;SDS011;72636;48.160;11.428;2024-03-06T06:25:21;10.88;;;8.85;;
45328;SDS011;72636;48.160;11.428;2024-03-06T06:27:47;12.80;;;9.32;;
45328;SDS011;72636;48.160;11.428;2024-03-06T06:30:14;11.60;;;9.13;;
45328;SDS011;72636;48.160;11.428;2024-03-06T06:32:41;10.23;;;8.25;;
45328;SDS011;72636;48.160;11.428;2024-03-06T06:37:34;10.65;;;7.50;;
45328;SDS011;72636;48.160;11.428;2024-03-06T06:40:00;10.02;;;8.13;;
45328;SDS011;72636;48.160;11.428;2024-03-06T06:42:31;11.90;;;8.38;;
45328;SDS011;72636;48.160;11.428;2024-03-06T06:44:58;10.63;;;8.02;;
45328;SDS011;72636;48.160;11.428;2024-03-06T06:47:24;10.35;;;7.80;;
45328;SDS011;72636;48.160;11.428;2024-03-06T06:49:49;14.20;;;7.67;;
45328;SDS011;72636;48.160;11.428;2024-03-06T06:52:15;11.23;;;7.67;;
45328;SDS011;72636;48.160;11.428;2024-03-06T06:54:41;14.48;;;9.40;;
45328;SDS011;72636;48.160;11.428;2024-03-06T06:57:06;10.10;;;8.43;;
45328;SDS011;72636;48.160;11.428;2024-03-06T07:01:59;10.15;;;7.65;;
45328;SDS011;72636;48.160;11.428;2024-03-06T07:04:25;11.25;;;8.77;;
45328;SDS011;72636;48.160;11.428;2024-03-06T07:06:51;12.38;;;8.68;;
45328;SDS011;72636;48.160;11.428;2024-03-06T07:09:17;12.60;;;9.47;;
45328;SDS011;72636;48.160;11.428;2024-03-06T07:11:43;9.65;;;7.97;;
45328;SDS011;72636;48.160;11.428;2024-03-06T07:14:09;12.70;;;9.93;;
45328;SDS011;72636;48.160;11.428;2024-03-06T07:16:43;12.18;;;9.05;;
45328;SDS011;72636;48.160;11.428;2024-03-06T07:19:09;10.63;;;8.63;;
45328;SDS011;72636;48.160;11.428;2024-03-06T07:21:35;12.52;;;9.10;;
45328;SDS011;72636;48.160;11.428;2024-03-06T07:24:02;11.68;;;8.85;;
45328;SDS011;72636;48.160;11.428;2024-03-06T07:28:55;12.27;;;8.57;;
45328;SDS011;72636;48.160;11.428;2024-03-06T07:31:21;11.98;;;8.93;;
45328;SDS011;72636;48.160;11.428;2024-03-06T07:33:46;12.20;;;9.40;;
45328;SDS011;72636;48.160;11.428;2024-03-06T07:36:12;10.53;;;8.93;;
45328;SDS011;72636;48.160;11.428;2024-03-06T07:38:38;11.23;;;9.03;;
45328;SDS011;72636;48.160;11.428;2024-03-06T07:41:03;11.47;;;9.10;;
45328;SDS011;72636;48.160;11.428;2024-03-06T07:43:29;10.60;;;7.67;;
45328;SDS011;72636;48.160;11.428;2024-03-06T07:45:54;13.73;;;7.93;;
45328;SDS011;72636;48.160;11.428;2024-03-06T07:48:20;8.65;;;7.22;;
45328;SDS011;72636;48.160;11.428;2024-03-06T07:50:46;10.60;;;7.67;;
45328;SDS011;72636;48.160;11.428;2024-03-06T07:53:11;10.67;;;7.50;;
45328;SDS011;72636;48.160;11.428;2024-03-06T07:55:37;8.53;;;7.43;;
45328;SDS011;72636;48.160;11.428;2024-03-06T07:58:04;8.85;;;6.45;;
45328;SDS011;72636;48.160;11.428;2024-03-06T08:00:30;9.23;;;7.35;;
45328;SDS011;72636;48.160;11.428;2024-03-06T08:02:56;9.60;;;7.10;;
45328;SDS011;72636;48.160;11.428;2024-03-06T08:05:22;7.18;;;6.25;;
45328;SDS011;72636;48.160;11.428;2024-03-06T08:07:48;8.40;;;6.07;;
45328;SDS011;72636;48.160;11.428;2024-03-06T08:10:14;8.98;;;7.03;;
45328;SDS011;72636;48.160;11.428;2024-03-06T08:12:40;7.97;;;6.82;;
45328;SDS011;72636;48.160;11.428;2024-03-06T08:15:07;8.93;;;6.60;;
45328;SDS011;72636;48.160;11.428;2024-03-06T08:17:35;10.02;;;7.43;;
45328;SDS011;72636;48.160;11.428;2024-03-06T08:20:02;8.32;;;6.63;;
45328;SDS011;72636;48.160;11.428;2024-03-06T08:22:32;7.78;;;6.53;;
45328;SDS011;72636;48.160;11.428;2024-03-06T08:27:31;9.80;;;6.40;;
45328;SDS011;72636;48.160;11.428;2024-03-06T08:29:57;8.45;;;6.10;;
45328;SDS011;72636;48.160;11.428;2024-03-06T08:32:22;7.40;;;5.97;;
45328;SDS011;72636;48.160;11.428;2024-03-06T08:34:48;8.80;;;6.70;;
45328;SDS011;72636;48.160;11.428;2024-03-06T08:37:13;8.23;;;5.97;;
45328;SDS011;72636;48.160;11.428;2024-03-06T08:39:39;8.07;;;5.83;;
45328;SDS011;72636;48.160;11.428;2024-03-06T08:42:05;9.60;;;6.27;;
45328;SDS011;72636;48.160;11.428;2024-03-06T08:44:30;8.30;;;6.28;;
45328;SDS011;72636;48.160;11.428;2024-03-06T08:46:56;6.63;;;5.50;;
45328;SDS011;72636;48.160;11.428;2024-03-06T08:49:22;7.03;;;5.97;;
45328;SDS011;72636;48.160;11.428;2024-03-06T08:51:48;6.47;;;5.68;;
45328;SDS011;72636;48.160;11.428;2024-03-06T08:54:13;9.43;;;6.47;;
45328;SDS011;72636;48.160;11.428;2024-03-06T08:56:39;10.03;;;7.17;;
45328;SDS011;72636;48.160;11.428;2024-03-06T08:59:04;9.63;;;7.53;;
45328;SDS011;72636;48.160;11.428;2024-03-06T09:01:30;10.47;;;7.53;;
45328;SDS011;72636;48.160;11.428;2024-03-06T09:03:56;8.98;;;7.30;;
45328;SDS011;72636;48.160;11.428;2024-03-06T09:06:22;8.55;;;6.75;;
45328;SDS011;72636;48.160;11.428;2024-03-06T09:08:48;7.72;;;6.35;;
45328;SDS011;72636;48.160;11.428;2024-03-06T09:11:14;8.15;;;6.68;;
45328;SDS011;72636;48.160;11.428;2024-03-06T09:13:39;8.97;;;6.70;;
45328;SDS011;72636;48.160;11.428;2024-03-06T09:16:05;9.40;;;7.60;;
45328;SDS011;72636;48.160;11.428;2024-03-06T09:18:31;9.70;;;7.00;;
45328;SDS011;72636;48.160;11.428;2024-03-06T09:20:57;8.20;;;6.57;;
45328;SDS011;72636;48.160;11.428;2024-03-06T09:23:22;8.37;;;6.93;;
45328;SDS011;72636;48.160;11.428;2024-03-06T09:25:48;8.00;;;6.50;;
45328;SDS011;72636;48.160;11.428;2024-03-06T09:28:14;7.72;;;6.50;;
45328;SDS011;72636;48.160;11.428;2024-03-06T09:30:40;7.90;;;5.17;;
45328;SDS011;72636;48.160;11.428;2024-03-06T09:35:32;6.90;;;5.15;;
45328;SDS011;72636;48.160;11.428;2024-03-06T09:37:58;6.40;;;5.23;;
45328;SDS011;72636;48.160;11.428;2024-03-06T09:40:23;6.82;;;5.47;;
45328;SDS011;72636;48.160;11.428;2024-03-06T09:42:50;6.80;;;5.30;;
45328;SDS011;72636;48.160;11.428;2024-03-06T09:45:16;5.75;;;4.75;;
45328;SDS011;72636;48.160;11.428;2024-03-06T09:47:42;6.65;;;4.80;;
45328;SDS011;72636;48.160;11.428;2024-03-06T09:50:09;5.82;;;5.03;;
45328;SDS011;72636;48.160;11.428;2024-03-06T09:52:36;5.90;;;4.40;;
45328;SDS011;72636;48.160;11.428;2024-03-06T09:55:04;4.70;;;4.20;;
45328;SDS011;72636;48.160;11.428;2024-03-06T09:57:30;5.10;;;4.60;;
45328;SDS011;72636;48.160;11.428;2024-03-06T09:59:56;4.57;;;4.10;;
45328;SDS011;72636;48.160;11.428;2024-03-06T10:02:34;4.87;;;4.07;;
45328;SDS011;72636;48.160;11.428;2024-03-06T10:05:03;6.10;;;4.38;;
45328;SDS011;72636;48.160;11.428;2024-03-06T10:07:30;4.80;;;4.30;;
45328;SDS011;72636;48.160;11.428;2024-03-06T10:09:56;5.78;;;5.07;;
45328;SDS011;72636;48.160;11.428;2024-03-06T10:12:22;5.83;;;4.77;;
45328;SDS011;72636;48.160;11.428;2024-03-06T10:14:51;5.50;;;4.33;;
45328;SDS011;72636;48.160;11.428;2024-03-06T10:17:21;5.32;;;4.80;;
45328;SDS011;72636;48.160;11.428;2024-03-06T10:19:52;6.93;;;5.40;;
45328;SDS011;72636;48.160;11.428;2024-03-06T10:22:18;7.22;;;4.85;;
45328;SDS011;72636;48.160;11.428;2024-03-06T10:24:45;6.47;;;5.35;;
45328;SDS011;72636;48.160;11.428;2024-03-06T10:27:15;7.57;;;6.47;;
45328;SDS011;72636;48.160;11.428;2024-03-06T10:29:42;8.85;;;6.65;;
45328;SDS011;72636;48.160;11.428;2024-03-06T10:32:08;8.07;;;6.37;;
45328;SDS011;72636;48.160;11.428;2024-03-06T10:34:35;7.72;;;5.78;;
45328;SDS011;72636;48.160;11.428;2024-03-06T10:37:02;8.98;;;6.05;;
45328;SDS011;72636;48.160;11.428;2024-03-06T10:39:29;8.10;;;5.93;;
45328;SDS011;72636;48.160;11.428;2024-03-06T10:41:59;6.72;;;5.30;;
45328;SDS011;72636;48.160;11.428;2024-03-06T10:44:30;6.63;;;5.38;;
45328;SDS011;72636;48.160;11.428;2024-03-06T10:46:58;7.07;;;4.80;;
45328;SDS011;72636;48.160;11.428;2024-03-06T10:49:25;9.23;;;5.38;;
45328;SDS011;72636;48.160;11.428;2024-03-06T10:51:58;10.02;;;6.13;;
45328;SDS011;72636;48.160;11.428;2024-03-06T10:54:32;10.13;;;6.33;;
45328;SDS011;72636;48.160;11.428;2024-03-06T10:57:04;8.38;;;5.60;;
45328;SDS011;72636;48.160;11.428;2024-03-06T10:59:29;7.43;;;5.63;;
45328;SDS011;72636;48.160;11.428;2024-03-06T11:01:56;7.18;;;5.90;;
45328;SDS011;72636;48.160;11.428;2024-03-06T11:04:25;8.60;;;6.55;;
45328;SDS011;72636;48.160;11.428;2024-03-06T11:06:58;6.97;;;5.40;;
45328;SDS011;72636;48.160;11.428;2024-03-06T11:09:34;5.03;;;4.38;;
45328;SDS011;72636;48.160;11.428;2024-03-06T11:12:01;7.00;;;5.18;;
45328;SDS011;72636;48.160;11.428;2024-03-06T11:14:27;5.43;;;4.10;;
45328;SDS011;72636;48.160;11.428;2024-03-06T11:20:07;5.95;;;5.32;;
45328;SDS011;72636;48.160;11.428;2024-03-06T11:28:19;6.43;;;5.65;;
45328;SDS011;72636;48.160;11.428;2024-03-06T11:30:59;8.13;;;6.30;;
45328;SDS011;72636;48.160;11.428;2024-03-06T11:33:42;7.13;;;5.72;;
45328;SDS011;72636;48.160;11.428;2024-03-06T11:36:21;7.78;;;5.55;;
45328;SDS011;72636;48.160;11.428;2024-03-06T11:41:32;7.20;;;5.97;;
45328;SDS011;72636;48.160;11.428;2024-03-06T11:44:17;8.65;;;6.82;;
45328;SDS011;72636;48.160;11.428;2024-03-06T11:46:48;7.50;;;5.90;;
45328;SDS011;72636;48.160;11.428;2024-03-06T11:49:25;6.45;;;5.57;;
45328;SDS011;72636;48.160;11.428;2024-03-06T11:52:07;6.88;;;5.45;;
45328;SDS011;72636;48.160;11.428;2024-03-06T11:54:33;7.07;;;5.65;;
45328;SDS011;72636;48.160;11.428;2024-03-06T11:57:00;7.72;;;6.05;;
45328;SDS011;72636;48.160;11.428;2024-03-06T12:01:58;6.05;;;5.18;;
45328;SDS011;72636;48.160;11.428;2024-03-06T12:04:27;7.07;;;5.70;;
45328;SDS011;72636;48.160;11.428;2024-03-06T12:06:57;7.10;;;5.57;;
45328;SDS011;72636;48.160;11.428;2024-03-06T12:09:25;8.07;;;5.72;;
45328;SDS011;72636;48.160;11.428;2024-03-06T12:11:51;8.90;;;5.45;;
45328;SDS011;72636;48.160;11.428;2024-03-06T12:14:18;8.30;;;5.90;;
45328;SDS011;72636;48.160;11.428;2024-03-06T12:16:54;8.30;;;6.13;;
45328;SDS011;72636;48.160;11.428;2024-03-06T12:19:27;8.38;;;6.57;;
45328;SDS011;72636;48.160;11.428;2024-03-06T12:21:53;6.05;;;5.43;;
45328;SDS011;72636;48.160;11.428;2024-03-06T12:24:19;7.57;;;5.93;;
45328;SDS011;72636;48.160;11.428;2024-03-06T12:26:45;9.98;;;6.65;;
45328;SDS011;72636;48.160;11.428;2024-03-06T12:29:17;8.18;;;5.97;;
45328;SDS011;72636;48.160;11.428;2024-03-06T12:31:45;8.32;;;6.50;;
45328;SDS011;72636;48.160;11.428;2024-03-06T12:34:13;8.43;;;6.50;;
45328;SDS011;72636;48.160;11.428;2024-03-06T12:36:42;7.95;;;6.07;;
45328;SDS011;72636;48.160;11.428;2024-03-06T12:39:08;9.13;;;7.28;;
45328;SDS011;72636;48.160;11.428;2024-03-06T12:41:40;9.63;;;6.68;;
45328;SDS011;72636;48.160;11.428;2024-03-06T12:44:06;12.35;;;8.77;;
45328;SDS011;72636;48.160;11.428;2024-03-06T12:46:32;10.07;;;7.78;;
45328;SDS011;72636;48.160;11.428;2024-03-06T12:48:58;14.48;;;9.52;;
45328;SDS011;72636;48.160;11.428;2024-03-06T12:51:24;14.27;;;8.87;;
45328;SDS011;72636;48.160;11.428;2024-03-06T12:53:50;14.10;;;9.40;;
45328;SDS011;72636;48.160;11.428;2024-03-06T12:56:16;12.40;;;9.23;;
45328;SDS011;72636;48.160;11.428;2024-03-06T12:58:42;12.38;;;8.95;;
45328;SDS011;72636;48.160;11.428;2024-03-06T13:01:08;13.77;;;10.07;;
45328;SDS011;72636;48.160;11.428;2024-03-06T13:03:35;12.13;;;8.70;;
45328;SDS011;72636;48.160;11.428;2024-03-06T13:06:01;12.95;;;9.98;;
45328;SDS011;72636;48.160;11.428;2024-03-06T13:08:29;12.68;;;9.82;;
45328;SDS011;72636;48.160;11.428;2024-03-06T13:10:55;14.38;;;9.52;;
45328;SDS011;72636;48.160;11.428;2024-03-06T13:13:21;13.80;;;10.00;;
45328;SDS011;72636;48.160;11.428;2024-03-06T13:15:48;16.15;;;10.40;;
45328;SDS011;72636;48.160;11.428;2024-03-06T13:18:15;15.45;;;10.75;;
45328;SDS011;72636;48.160;11.428;2024-03-06T13:20:41;14.90;;;10.57;;
45328;SDS011;72636;48.160;11.428;2024-03-06T13:23:07;14.48;;;9.95;;
45328;SDS011;72636;48.160;11.428;2024-03-06T13:25:33;12.43;;;9.37;;
45328;SDS011;72636;48.160;11.428;2024-03-06T13:27:59;15.60;;;10.73;;
45328;SDS011;72636;48.160;11.428;2024-03-06T13:30:25;15.00;;;10.33;;
45328;SDS011;72636;48.160;11.428;2024-03-06T13:32:51;12.63;;;9.02;;
45328;SDS011;72636;48.160;11.428;2024-03-06T13:35:16;17.00;;;10.57;;
45328;SDS011;72636;48.160;11.428;2024-03-06T13:37:42;13.93;;;10.20;;
45328;SDS011;72636;48.160;11.428;2024-03-06T13:40:09;13.23;;;9.07;;
45328;SDS011;72636;48.160;11.428;2024-03-06T13:42:38;14.45;;;9.75;;
45328;SDS011;72636;48.160;11.428;2024-03-06T13:45:04;12.48;;;9.52;;
45328;SDS011;72636;48.160;11.428;2024-03-06T13:47:30;15.13;;;10.27;;
45328;SDS011;72636;48.160;11.428;2024-03-06T13:49:56;14.25;;;9.70;;
45328;SDS011;72636;48.160;11.428;2024-03-06T13:52:22;13.03;;;9.20;;
45328;SDS011;72636;48.160;11.428;2024-03-06T13:57:22;11.52;;;8.05;;
45328;SDS011;72636;48.160;11.428;2024-03-06T13:59:48;10.20;;;6.97;;
45328;SDS011;72636;48.160;11.428;2024-03-06T14:02:15;10.68;;;7.85;;
45328;SDS011;72636;48.160;11.428;2024-03-06T14:04:41;12.83;;;8.97;;
45328;SDS011;72636;48.160;11.428;2024-03-06T14:07:06;10.40;;;7.33;;
45328;SDS011;72636;48.160;11.428;2024-03-06T14:09:32;11.33;;;7.17;;
45328;SDS011;72636;48.160;11.428;2024-03-06T14:11:58;10.27;;;7.47;;
45328;SDS011;72636;48.160;11.428;2024-03-06T14:14:23;9.93;;;7.30;;
45328;SDS011;72636;48.160;11.428;2024-03-06T14:16:49;11.32;;;7.72;;
45328;SDS011;72636;48.160;11.428;2024-03-06T14:19:15;11.00;;;7.27;;
45328;SDS011;72636;48.160;11.428;2024-03-06T14:21:41;10.73;;;8.03;;
45328;SDS011;72636;48.160;11.428;2024-03-06T14:24:06;10.90;;;7.60;;
45328;SDS011;72636;48.160;11.428;2024-03-06T14:26:32;10.73;;;7.63;;
45328;SDS011;72636;48.160;11.428;2024-03-06T14:28:59;10.45;;;7.10;;
45328;SDS011;72636;48.160;11.428;2024-03-06T14:31:27;10.60;;;7.32;;
45328;SDS011;72636;48.160;11.428;2024-03-06T14:33:52;7.38;;;4.80;;
45328;SDS011;72636;48.160;11.428;2024-03-06T14:36:18;7.13;;;5.20;;
45328;SDS011;72636;48.160;11.428;2024-03-06T14:38:46;6.22;;;5.05;;
45328;SDS011;72636;48.160;11.428;2024-03-06T14:41:12;6.40;;;4.78;;
45328;SDS011;72636;48.160;11.428;2024-03-06T14:43:38;5.75;;;4.70;;
45328;SDS011;72636;48.160;11.428;2024-03-06T14:46:07;5.63;;;4.43;;
45328;SDS011;72636;48.160;11.428;2024-03-06T14:48:33;5.68;;;4.50;;
45328;SDS011;72636;48.160;11.428;2024-03-06T14:51:00;6.63;;;4.63;;
45328;SDS011;72636;48.160;11.428;2024-03-06T14:55:52;6.75;;;4.40;;
45328;SDS011;72636;48.160;11.428;2024-03-06T14:58:18;7.70;;;5.20;;
45328;SDS011;72636;48.160;11.428;2024-03-06T15:00:44;8.95;;;5.35;;
45328;SDS011;72636;48.160;11.428;2024-03-06T15:03:10;6.78;;;5.07;;